This is the latest recevied weather packets stored in our database for station/object SIILIN. If no packets are shown the sender has not sent any weather packets the latest 10 day(s).
| Time | Temp. | Humidity | Pressure | Rain* | Wind** | Luminosity | Snow |
|---|---|---|---|---|---|---|---|
| 1777964838 | 3.33° C | 85% | 1000.9 hPa | - | - | - | - |
| 1777962438 | 3.33° C | 88% | 1000.5 hPa | - | - | - | - |
| 1777961238 | 2.78° C | 89% | 1000.3 hPa | - | - | - | - |
| 1777960038 | 2.78° C | 90% | 1000.2 hPa | - | - | - | - |
| 1777958838 | 3.33° C | 88% | 1000 hPa | - | - | - | - |
| 1777957638 | 3.33° C | 90% | 999.6 hPa | - | - | - | - |
| 1777956438 | 3.33° C | 89% | 999.4 hPa | - | - | - | - |
| 1777955237 | 4.44° C | 83% | 999.2 hPa | - | - | - | - |
| 1777954037 | 4.44° C | 89% | 999.3 hPa | - | - | - | - |
| 1777931237 | 7.22° C | 91% | 1000.1 hPa | - | - | - | - |
| 1777930037 | 7.78° C | 89% | 1000.1 hPa | - | - | - | - |
| 1777922836 | 7.78° C | 81% | 1000 hPa | - | - | - | - |
| 1777919236 | 8.89° C | 71% | 1000 hPa | - | - | - | - |
| 1777918036 | 8.89° C | 69% | 999.8 hPa | - | - | - | - |
| 1777915635 | 8.89° C | 67% | 999.9 hPa | - | - | - | - |
| 1777914435 | 8.89° C | 66% | 999.9 hPa | - | - | - | - |
| 1777912035 | 8.89° C | 66% | 999.8 hPa | - | - | - | - |
| 1777910835 | 8.89° C | 68% | 999.8 hPa | - | - | - | - |
| 1777909635 | 9.44° C | 65% | 999.9 hPa | - | - | - | - |
| 1777908435 | 9.44° C | 66% | 1000.1 hPa | - | - | - | - |
| 1777907235 | 8.89° C | 68% | 1000 hPa | - | - | - | - |
| 1777904835 | 9.44° C | 57% | 1000.3 hPa | - | - | - | - |
| 1777903635 | 9.44° C | 56% | 1000.4 hPa | - | - | - | - |
| 1777902435 | 9.44° C | 52% | 1000.5 hPa | - | - | - | - |
| 1777901235 | 9.44° C | 49% | 1000.8 hPa | - | - | - | - |
* Rain since midnight (hover to see other rain measurements)
** Current wind speed in m/s (hover to see current wind gust speed)